Time;durP1;ratioP1;P1;durP2;ratioP2;P2;SDS_P1;SDS_P2;PMS_P1;PMS_P2;Temp;Humidity;BMP_temperature;BMP_pressure;BME280_temperature;BME280_humidity;BME280_pressure;Samples;Min_cycle;Max_cycle;Signal;HPM_P1;HPM_P2
2024/01/09 00:00:12;;;;;;;11.88;4.10;;;;;;;-4.10;100.00;103413.16;5094563;27;20024;-74
2024/01/09 00:02:38;;;;;;;7.65;4.45;;;;;;;-4.02;100.00;103406.50;5075036;27;20023;-73
2024/01/09 00:05:03;;;;;;;7.85;4.70;;;;;;;-4.15;100.00;103406.88;5095649;27;20040;-73
2024/01/09 00:07:29;;;;;;;7.90;4.38;;;;;;;-4.17;100.00;103404.22;5093554;27;20072;-73
2024/01/09 00:09:55;;;;;;;9.45;4.28;;;;;;;-4.13;100.00;103415.63;5097749;27;20109;-73
2024/01/09 00:12:20;;;;;;;7.28;4.22;;;;;;;-4.15;100.00;103400.78;5087907;27;20040;-73
2024/01/09 00:14:46;;;;;;;7.40;4.43;;;;;;;-4.19;100.00;103404.97;5096330;27;20063;-73
2024/01/09 00:17:11;;;;;;;8.40;4.75;;;;;;;-4.11;100.00;103402.66;5087861;27;20032;-73
2024/01/09 00:19:37;;;;;;;6.80;4.72;;;;;;;-4.24;100.00;103409.09;5099561;27;20043;-73
2024/01/09 00:22:05;;;;;;;8.43;4.18;;;;;;;-4.15;100.00;103400.78;5071975;28;20032;-73
2024/01/09 00:24:30;;;;;;;9.90;5.10;;;;;;;-4.24;100.00;103415.19;5088076;27;20555;-74
2024/01/09 00:26:56;;;;;;;9.85;5.57;;;;;;;-4.21;100.00;103404.03;5095316;27;20020;-74
2024/01/09 00:29:21;;;;;;;7.20;4.43;;;;;;;-4.26;100.00;103400.38;5095176;27;20520;-73
2024/01/09 00:31:47;;;;;;;8.98;4.35;;;;;;;-4.20;100.00;103398.00;5098744;27;20042;-74
2024/01/09 00:34:13;;;;;;;10.68;4.55;;;;;;;-4.26;100.00;103396.03;5092101;27;20032;-73
2024/01/09 00:36:45;;;;;;;10.63;4.20;;;;;;;-4.28;100.00;103399.41;5095308;27;20036;-74
2024/01/09 00:39:11;;;;;;;9.55;4.35;;;;;;;-4.28;100.00;103394.19;5092750;27;20048;-73
2024/01/09 00:41:37;;;;;;;8.68;4.30;;;;;;;-4.27;100.00;103399.44;5075069;27;20121;-74
2024/01/09 00:44:02;;;;;;;9.40;4.18;;;;;;;-4.40;100.00;103405.03;5091594;27;20147;-74
2024/01/09 00:46:28;;;;;;;7.50;4.22;;;;;;;-4.30;100.00;103398.47;5098509;27;20398;-74
2024/01/09 00:48:54;;;;;;;8.35;4.25;;;;;;;-4.26;100.00;103402.97;5099999;27;20050;-73
2024/01/09 00:51:19;;;;;;;9.68;4.47;;;;;;;-4.29;100.00;103398.50;5080115;27;20036;-73
2024/01/09 00:53:45;;;;;;;8.10;4.78;;;;;;;-4.42;100.00;103404.06;5095042;27;20032;-74
2024/01/09 00:56:11;;;;;;;8.05;4.63;;;;;;;-4.46;100.00;103390.03;5094835;27;20025;-74
2024/01/09 00:58:36;;;;;;;8.55;4.22;;;;;;;-4.46;100.00;103392.66;5071533;27;20800;-72
2024/01/09 01:01:02;;;;;;;12.45;4.75;;;;;;;-4.45;100.00;103394.41;5088979;27;20028;-72
2024/01/09 01:03:28;;;;;;;9.65;4.55;;;;;;;-4.39;100.00;103398.09;5092107;27;20067;-73
2024/01/09 01:05:54;;;;;;;7.80;4.38;;;;;;;-4.37;100.00;103399.03;5072077;27;20047;-74
2024/01/09 01:08:21;;;;;;;8.93;4.30;;;;;;;-4.45;100.00;103402.22;5067854;27;20538;-74
2024/01/09 01:10:47;;;;;;;11.63;4.63;;;;;;;-4.53;100.00;103400.13;5093733;27;20028;-73
2024/01/09 01:13:12;;;;;;;10.50;5.00;;;;;;;-4.45;100.00;103402.22;5095105;27;20059;-74
2024/01/09 01:15:38;;;;;;;8.05;4.80;;;;;;;-4.50;100.00;103400.28;5089810;27;20024;-75
2024/01/09 01:18:04;;;;;;;7.13;4.13;;;;;;;-4.49;100.00;103397.72;5091118;27;20042;-73
2024/01/09 01:20:30;;;;;;;12.63;4.15;;;;;;;-4.47;100.00;103402.97;5090364;27;20031;-73
2024/01/09 01:22:55;;;;;;;7.07;4.28;;;;;;;-4.54;100.00;103394.06;5099381;27;20132;-73
2024/01/09 01:25:21;;;;;;;7.97;4.60;;;;;;;-4.50;100.00;103401.16;5097574;27;20035;-74
2024/01/09 01:27:46;;;;;;;9.65;4.78;;;;;;;-4.50;100.00;103400.28;5080750;27;20772;-73
2024/01/09 01:30:12;;;;;;;11.30;4.90;;;;;;;-4.61;100.00;103394.66;5095742;27;20047;-75
2024/01/09 01:32:37;;;;;;;7.53;4.25;;;;;;;-4.58;100.00;103399.97;5095989;27;20086;-74
2024/01/09 01:35:03;;;;;;;8.75;4.38;;;;;;;-4.59;100.00;103407.72;5088177;27;20538;-73
2024/01/09 01:37:29;;;;;;;8.52;5.10;;;;;;;-4.66;100.00;103409.19;5096319;27;20039;-74
2024/01/09 01:39:55;;;;;;;8.75;5.00;;;;;;;-4.72;100.00;103406.31;5071660;27;20525;-74
2024/01/09 01:42:20;;;;;;;8.93;5.00;;;;;;;-4.70;100.00;103397.75;5085526;27;20802;-74
2024/01/09 01:44:45;;;;;;;8.75;4.03;;;;;;;-4.77;100.00;103402.63;5089533;27;20792;-75
2024/01/09 01:47:11;;;;;;;9.95;4.72;;;;;;;-4.76;100.00;103402.72;5077507;28;20121;-74
2024/01/09 01:49:37;;;;;;;5.68;4.55;;;;;;;-4.73;100.00;103399.34;5090325;27;20619;-75
2024/01/09 01:52:03;;;;;;;11.07;4.95;;;;;;;-4.81;100.00;103404.25;5096961;27;20031;-74
2024/01/09 01:54:32;;;;;;;9.60;4.70;;;;;;;-4.76;100.00;103401.84;5099044;27;20031;-74
2024/01/09 01:57:00;;;;;;;8.60;4.82;;;;;;;-4.73;100.00;103404.53;5077087;27;20035;-74
2024/01/09 01:59:25;;;;;;;8.68;5.05;;;;;;;-4.75;100.00;103407.09;5092565;27;20036;-74
2024/01/09 02:01:51;;;;;;;6.75;3.97;;;;;;;-4.86;100.00;103399.69;5072987;27;20031;-75
2024/01/09 02:04:19;;;;;;;7.68;4.13;;;;;;;-4.85;100.00;103404.06;5090390;27;20123;-74
2024/01/09 02:06:46;;;;;;;10.40;5.28;;;;;;;-4.88;100.00;103406.50;5099371;27;20059;-75
2024/01/09 02:09:11;;;;;;;6.88;3.78;;;;;;;-4.96;100.00;103401.00;5097776;27;20032;-74
2024/01/09 02:11:37;;;;;;;8.70;4.43;;;;;;;-4.91;100.00;103393.41;5093870;27;20881;-73
2024/01/09 02:14:03;;;;;;;8.68;4.85;;;;;;;-4.91;100.00;103396.00;5076569;28;20138;-74
2024/01/09 02:16:28;;;;;;;9.20;5.15;;;;;;;-5.01;100.00;103392.13;5092662;27;20035;-73
2024/01/09 02:18:54;;;;;;;10.00;4.80;;;;;;;-5.02;100.00;103398.13;5100423;27;20489;-75
2024/01/09 02:21:19;;;;;;;9.27;5.20;;;;;;;-4.98;100.00;103395.72;5099728;27;20040;-75
2024/01/09 02:23:45;;;;;;;10.50;5.35;;;;;;;-5.00;100.00;103394.78;5100772;27;20434;-74
2024/01/09 02:26:14;;;;;;;11.77;5.40;;;;;;;-5.06;100.00;103389.31;5109105;27;20043;-74
2024/01/09 02:28:48;;;;;;;9.75;4.78;;;;;;;-5.07;100.00;103389.25;5099879;27;20151;-75
2024/01/09 02:31:13;;;;;;;9.50;4.85;;;;;;;-5.02;100.00;103396.44;5115473;27;21430;-74
2024/01/09 02:33:39;;;;;;;8.43;4.93;;;;;;;-5.00;100.00;103381.78;5099365;27;20039;-75
2024/01/09 02:36:05;;;;;;;9.77;4.65;;;;;;;-5.02;100.00;103379.91;5112044;27;20036;-74
2024/01/09 02:38:31;;;;;;;8.50;4.82;;;;;;;-5.07;100.00;103378.84;5112569;27;20725;-74
2024/01/09 02:40:56;;;;;;;9.43;5.05;;;;;;;-5.13;100.00;103384.69;5122569;27;20039;-73
2024/01/09 02:43:22;;;;;;;8.98;5.15;;;;;;;-5.01;100.00;103386.91;5117623;27;20040;-74
2024/01/09 02:45:47;;;;;;;9.25;5.25;;;;;;;-5.10;100.00;103379.63;5110033;27;20028;-74
2024/01/09 02:48:13;;;;;;;11.90;5.75;;;;;;;-5.02;100.00;103385.13;5059761;27;20421;-74
2024/01/09 02:50:38;;;;;;;12.75;5.53;;;;;;;-5.00;100.00;103381.78;5108705;27;20071;-75
2024/01/09 02:53:04;;;;;;;11.48;5.47;;;;;;;-4.96;100.00;103383.69;5095013;27;20036;-74
2024/01/09 02:55:29;;;;;;;13.85;5.40;;;;;;;-5.06;100.00;103388.44;5102862;27;20266;-75
2024/01/09 02:57:55;;;;;;;14.30;5.90;;;;;;;-5.01;100.00;103386.91;5103802;27;20035;-75
2024/01/09 03:00:21;;;;;;;12.88;5.90;;;;;;;-5.06;100.00;103386.72;5091911;27;20886;-75
2024/01/09 03:02:46;;;;;;;8.93;5.13;;;;;;;-5.01;100.00;103384.31;5102135;27;20691;-74
2024/01/09 03:05:12;;;;;;;11.18;5.30;;;;;;;-5.04;100.00;103387.66;5097809;27;20036;-74
2024/01/09 03:07:37;;;;;;;14.82;5.68;;;;;;;-5.01;100.00;103389.53;5103751;27;20123;-74
2024/01/09 03:10:03;;;;;;;11.00;5.25;;;;;;;-5.07;100.00;103389.25;5098632;27;20035;-74
2024/01/09 03:12:29;;;;;;;10.82;5.10;;;;;;;-5.05;100.00;103385.91;5090063;27;20071;-74
2024/01/09 03:14:55;;;;;;;14.32;6.53;;;;;;;-5.13;100.00;103387.28;5092144;27;20032;-73
2024/01/09 03:17:21;;;;;;;10.30;6.20;;;;;;;-5.08;100.00;103382.28;5076717;27;20485;-74
2024/01/09 03:19:47;;;;;;;10.52;5.15;;;;;;;-5.13;100.00;103394.19;5096501;27;20036;-74
2024/01/09 03:22:12;;;;;;;9.82;5.25;;;;;;;-5.15;100.00;103393.25;5081411;27;20040;-75
2024/01/09 03:24:37;;;;;;;8.95;4.95;;;;;;;-5.07;100.00;103395.38;5098329;27;20031;-74
2024/01/09 03:27:03;;;;;;;10.95;5.53;;;;;;;-5.12;100.00;103396.88;5100082;27;20031;-73
2024/01/09 03:29:29;;;;;;;10.52;5.32;;;;;;;-5.10;100.00;103389.13;5095080;27;20058;-74
2024/01/09 03:31:54;;;;;;;13.05;5.57;;;;;;;-5.20;100.00;103395.66;5095330;27;20044;-74
2024/01/09 03:34:20;;;;;;;11.57;5.28;;;;;;;-5.10;100.00;103384.81;5100003;27;20173;-74
2024/01/09 03:36:46;;;;;;;10.10;5.13;;;;;;;-5.15;100.00;103385.44;5095074;27;20802;-74
2024/01/09 03:39:14;;;;;;;11.43;5.90;;;;;;;-5.20;100.00;103390.44;5069352;27;20045;-74
2024/01/09 03:41:42;;;;;;;11.38;5.50;;;;;;;-5.17;100.00;103382.78;5100208;27;20109;-74
2024/01/09 03:44:08;;;;;;;12.93;6.43;;;;;;;-5.21;100.00;103384.38;5094137;27;20036;-74
2024/01/09 03:46:34;;;;;;;9.98;5.55;;;;;;;-5.25;100.00;103379.84;5092790;27;20024;-74
2024/01/09 03:48:59;;;;;;;9.85;5.93;;;;;;;-5.27;100.00;103386.72;5096272;27;20028;-75
2024/01/09 03:51:24;;;;;;;9.75;5.05;;;;;;;-5.24;100.00;103379.03;5089447;27;20560;-74
2024/01/09 03:53:50;;;;;;;11.15;5.90;;;;;;;-5.24;100.00;103381.63;5099660;27;20701;-74
2024/01/09 03:56:15;;;;;;;12.07;5.78;;;;;;;-5.21;100.00;103373.97;5072777;27;20039;-74
2024/01/09 03:58:41;;;;;;;12.52;5.40;;;;;;;-5.21;100.00;103373.97;5073546;27;20031;-74
2024/01/09 04:01:06;;;;;;;11.35;5.88;;;;;;;-5.29;100.00;103379.66;5093223;27;20126;-73
2024/01/09 04:03:32;;;;;;;13.63;6.32;;;;;;;-5.23;100.00;103378.19;5091112;27;20044;-74
2024/01/09 04:05:57;;;;;;;13.95;5.70;;;;;;;-5.21;100.00;103363.56;5096015;27;20034;-74
2024/01/09 04:08:23;;;;;;;12.00;5.78;;;;;;;-5.16;100.00;103373.28;5062103;28;20117;-74
2024/01/09 04:10:48;;;;;;;14.77;6.60;;;;;;;-5.24;100.00;103367.75;5075337;27;20806;-75
2024/01/09 04:13:14;;;;;;;12.93;5.82;;;;;;;-5.31;100.00;103358.81;5080731;27;20027;-73
2024/01/09 04:15:39;;;;;;;10.85;6.25;;;;;;;-5.28;100.00;103368.44;5079016;27;20028;-75
2024/01/09 04:18:05;;;;;;;12.25;5.68;;;;;;;-5.29;100.00;103364.06;5088738;27;20098;-73
2024/01/09 04:20:30;;;;;;;12.07;5.20;;;;;;;-5.35;100.00;103359.50;5099664;27;20054;-74
2024/01/09 04:22:56;;;;;;;13.23;5.90;;;;;;;-5.39;100.00;103346.28;5077136;27;20039;-74
2024/01/09 04:25:21;;;;;;;11.18;6.05;;;;;;;-5.38;100.00;103354.16;5098176;27;20039;-74
2024/01/09 04:27:47;;;;;;;11.60;6.43;;;;;;;-5.35;100.00;103353.41;5093969;27;21189;-75
2024/01/09 04:30:13;;;;;;;12.02;5.90;;;;;;;-5.34;100.00;103362.97;5098268;27;20040;-73
2024/01/09 04:32:38;;;;;;;11.02;5.40;;;;;;;-5.38;100.00;103372.34;5099205;27;20036;-74
2024/01/09 04:35:04;;;;;;;12.82;5.80;;;;;;;-5.34;100.00;103360.38;5076602;27;20042;-75
2024/01/09 04:37:29;;;;;;;10.55;5.95;;;;;;;-5.49;100.00;103352.81;5081260;27;20027;-74
2024/01/09 04:39:55;;;;;;;13.00;5.75;;;;;;;-5.50;100.00;103353.63;5099958;27;20485;-75
2024/01/09 04:42:20;;;;;;;13.40;6.22;;;;;;;-5.45;100.00;103353.84;5078789;27;20028;-74
2024/01/09 04:44:46;;;;;;;10.20;5.65;;;;;;;-5.45;100.00;103340.84;5073941;27;20332;-74
2024/01/09 04:47:15;;;;;;;10.93;5.75;;;;;;;-5.50;100.00;103351.03;5094155;27;20077;-73
2024/01/09 04:49:42;;;;;;;15.13;6.72;;;;;;;-5.51;100.00;103351.88;5102027;27;20086;-74
2024/01/09 04:52:08;;;;;;;16.50;6.97;;;;;;;-5.46;100.00;103347.75;5059853;27;20031;-74
2024/01/09 04:54:34;;;;;;;11.05;6.22;;;;;;;-5.53;100.00;103349.19;5098869;27;20050;-76
2024/01/09 04:56:59;;;;;;;10.43;5.85;;;;;;;-5.54;100.00;103352.59;5057272;27;20023;-75
2024/01/09 04:59:25;;;;;;;11.15;6.47;;;;;;;-5.54;100.00;103352.59;5095651;27;20032;-74
2024/01/09 05:01:50;;;;;;;10.52;5.70;;;;;;;-5.59;100.00;103346.31;5094846;27;20038;-74
2024/01/09 05:04:16;;;;;;;16.60;6.43;;;;;;;-5.58;100.00;103352.41;5073647;28;20090;-74
2024/01/09 05:06:41;;;;;;;11.95;6.07;;;;;;;-5.61;100.00;103345.38;5089294;27;20027;-74
2024/01/09 05:09:06;;;;;;;13.55;6.65;;;;;;;-5.63;100.00;103349.59;5094303;27;20032;-74
2024/01/09 05:11:32;;;;;;;15.38;7.20;;;;;;;-5.59;100.00;103350.63;5075859;28;20474;-74
2024/01/09 05:13:57;;;;;;;13.18;6.40;;;;;;;-5.63;100.00;103360.00;5096236;27;20040;-75
2024/01/09 05:16:24;;;;;;;14.85;6.30;;;;;;;-5.59;100.00;103361.03;5096228;27;20038;-74
2024/01/09 05:18:50;;;;;;;11.73;5.97;;;;;;;-5.61;100.00;103347.97;5098875;27;20624;-76
2024/01/09 05:21:15;;;;;;;13.57;6.03;;;;;;;-5.59;100.00;103359.31;5074371;27;20128;-75
2024/01/09 05:23:41;;;;;;;18.90;7.15;;;;;;;-5.60;100.00;103360.13;5094136;27;20043;-75
2024/01/09 05:26:07;;;;;;;12.02;6.28;;;;;;;-5.62;100.00;103363.47;5075031;27;20036;-74
2024/01/09 05:28:32;;;;;;;14.60;7.18;;;;;;;-5.69;100.00;103366.66;5098396;27;20038;-74
2024/01/09 05:30:57;;;;;;;12.73;6.68;;;;;;;-5.66;100.00;103369.38;5098373;27;20481;-75
2024/01/09 05:33:23;;;;;;;12.35;7.20;;;;;;;-5.79;100.00;103362.75;5077487;27;20035;-74
2024/01/09 05:35:48;;;;;;;17.98;6.85;;;;;;;-5.69;100.00;103358.84;5097772;27;20032;-75
2024/01/09 05:38:14;;;;;;;12.75;6.68;;;;;;;-5.76;100.00;103363.78;5099480;27;20039;-74
2024/01/09 05:40:39;;;;;;;15.20;7.80;;;;;;;-5.76;100.00;103363.78;5073455;27;20052;-75
2024/01/09 05:43:05;;;;;;;16.08;7.22;;;;;;;-5.70;100.00;103363.16;5086630;27;20044;-74
2024/01/09 05:45:30;;;;;;;15.05;6.95;;;;;;;-5.78;100.00;103362.81;5089377;27;20031;-75
2024/01/09 05:47:56;;;;;;;16.75;7.32;;;;;;;-5.84;100.00;103364.25;5096328;27;20032;-74
2024/01/09 05:50:21;;;;;;;11.18;6.45;;;;;;;-5.79;100.00;103367.94;5083824;27;20031;-74
2024/01/09 05:52:47;;;;;;;15.52;7.70;;;;;;;-5.82;100.00;103379.09;5089046;27;20028;-74
2024/01/09 05:55:12;;;;;;;16.10;7.78;;;;;;;-5.74;100.00;103363.84;5090503;27;20572;-74
2024/01/09 05:57:38;;;;;;;13.55;7.30;;;;;;;-5.78;100.00;103375.78;5070919;27;20705;-74
2024/01/09 06:00:04;;;;;;;14.50;7.38;;;;;;;-5.80;100.00;103384.34;5086998;27;20477;-75
2024/01/09 06:02:29;;;;;;;13.55;7.18;;;;;;;-5.80;100.00;103372.25;5094469;27;20122;-75
2024/01/09 06:04:55;;;;;;;13.32;7.43;;;;;;;-5.88;100.00;103391.78;5095904;27;20144;-74
2024/01/09 06:07:20;;;;;;;18.00;7.97;;;;;;;-5.89;100.00;103381.34;5091712;27;20044;-74
2024/01/09 06:09:46;;;;;;;15.32;6.75;;;;;;;-5.94;100.00;103382.88;5094765;27;20032;-74
2024/01/09 06:12:12;;;;;;;13.35;6.82;;;;;;;-5.92;100.00;103389.94;5095823;27;20032;-74
2024/01/09 06:14:37;;;;;;;15.85;8.00;;;;;;;-5.92;100.00;103389.00;5101718;27;20086;-74
2024/01/09 06:17:03;;;;;;;18.42;8.15;;;;;;;-5.90;100.00;103398.63;5097662;27;20032;-74
2024/01/09 06:19:28;;;;;;;17.45;8.20;;;;;;;-6.01;100.00;103386.91;5103557;27;20475;-74
2024/01/09 06:21:54;;;;;;;14.65;7.30;;;;;;;-5.96;100.00;103380.22;5086701;27;20094;-74
2024/01/09 06:24:20;;;;;;;16.58;8.00;;;;;;;-5.89;100.00;103382.22;5093313;27;20040;-74
2024/01/09 06:26:46;;;;;;;15.13;7.40;;;;;;;-5.97;100.00;103393.13;5096905;27;20028;-75
2024/01/09 06:29:11;;;;;;;15.65;8.63;;;;;;;-5.95;100.00;103384.59;5096316;27;20037;-74
2024/01/09 06:31:37;;;;;;;16.52;7.55;;;;;;;-6.00;100.00;103384.38;5071946;28;20036;-74
2024/01/09 06:34:03;;;;;;;18.90;8.48;;;;;;;-6.10;100.00;103397.75;5089471;27;20032;-74
2024/01/09 06:36:28;;;;;;;15.93;7.80;;;;;;;-6.06;100.00;103388.41;5078693;27;20312;-75
2024/01/09 06:38:54;;;;;;;19.58;9.13;;;;;;;-6.03;100.00;103394.59;5090410;27;20468;-75
2024/01/09 06:41:19;;;;;;;18.38;8.10;;;;;;;-6.06;100.00;103394.50;5086350;27;20103;-74
2024/01/09 06:43:45;;;;;;;15.43;8.82;;;;;;;-5.98;100.00;103397.41;5091591;27;20736;-74
2024/01/09 06:46:10;;;;;;;16.27;8.13;;;;;;;-6.01;100.00;103402.50;5079632;27;20366;-74
2024/01/09 06:48:36;;;;;;;18.80;8.23;;;;;;;-6.12;100.00;103407.19;5092585;27;20047;-75
2024/01/09 06:51:01;;;;;;;14.05;7.03;;;;;;;-5.96;100.00;103402.72;5073069;27;20024;-75
2024/01/09 06:53:27;;;;;;;20.67;7.80;;;;;;;-6.18;100.00;103413.78;5075637;27;20389;-75
2024/01/09 06:55:52;;;;;;;14.52;7.38;;;;;;;-6.16;100.00;103404.38;5070812;27;20045;-74
2024/01/09 06:58:18;;;;;;;17.70;8.20;;;;;;;-5.94;100.00;103406.25;5096948;27;20036;-74
2024/01/09 07:00:44;;;;;;;18.00;8.65;;;;;;;-6.17;100.00;103413.00;5088883;27;20096;-74
2024/01/09 07:03:10;;;;;;;15.05;8.63;;;;;;;-6.08;100.00;103410.81;5094558;27;20039;-75
2024/01/09 07:05:35;;;;;;;18.90;8.40;;;;;;;-6.15;100.00;103417.44;5091162;27;20510;-72
2024/01/09 07:08:03;;;;;;;19.33;7.60;;;;;;;-6.14;100.00;103420.91;5088022;27;20044;-75
2024/01/09 07:10:29;;;;;;;17.92;7.93;;;;;;;-6.15;100.00;103411.34;5100251;27;20032;-75
2024/01/09 07:12:54;;;;;;;16.52;8.25;;;;;;;-6.18;100.00;103413.78;5092760;27;20036;-76
2024/01/09 07:15:20;;;;;;;18.98;8.43;;;;;;;-6.18;100.00;103416.38;5076678;27;20036;-77
2024/01/09 07:17:46;;;;;;;17.02;8.30;;;;;;;-6.18;100.00;103416.38;5083855;27;20106;-75
2024/01/09 07:20:11;;;;;;;17.02;8.80;;;;;;;-6.33;100.00;103414.84;5083827;27;20819;-75
2024/01/09 07:22:37;;;;;;;15.02;7.82;;;;;;;-6.20;100.00;103424.13;5097545;27;20047;-75
2024/01/09 07:25:03;;;;;;;19.92;8.52;;;;;;;-6.25;100.00;103420.41;5099229;27;20040;-75
2024/01/09 07:27:29;;;;;;;16.80;8.40;;;;;;;-6.20;100.00;103415.44;5095639;27;20027;-74
2024/01/09 07:29:54;;;;;;;18.10;8.63;;;;;;;-6.29;100.00;103415.88;5101541;27;20046;-75
2024/01/09 07:32:21;;;;;;;15.63;8.00;;;;;;;-6.29;100.00;103419.38;5099187;27;20104;-74
2024/01/09 07:34:50;;;;;;;18.17;8.82;;;;;;;-6.20;100.00;103410.25;5086636;27;20052;-73
2024/01/09 07:37:16;;;;;;;15.05;7.60;;;;;;;-6.33;100.00;103425.22;5096247;27;20115;-75
2024/01/09 07:39:41;;;;;;;20.63;9.55;;;;;;;-6.33;100.00;103417.44;5094266;27;20093;-75
2024/01/09 07:42:07;;;;;;;17.88;8.52;;;;;;;-6.15;100.00;103425.22;5093947;27;20016;-74
2024/01/09 07:44:33;;;;;;;17.65;8.75;;;;;;;-6.26;100.00;103427.31;5087042;27;20039;-74
2024/01/09 07:47:00;;;;;;;19.88;8.75;;;;;;;-6.33;100.00;103424.34;5095159;27;20047;-74
2024/01/09 07:49:25;;;;;;;17.13;7.78;;;;;;;-6.27;100.00;103435.03;5094260;27;20032;-75
2024/01/09 07:51:51;;;;;;;19.67;8.80;;;;;;;-6.27;100.00;103422.94;5091374;27;20032;-75
2024/01/09 07:54:16;;;;;;;19.42;9.00;;;;;;;-6.21;100.00;103440.50;5096625;27;20032;-74
2024/01/09 07:56:42;;;;;;;16.25;8.18;;;;;;;-6.23;100.00;103434.34;5070054;27;20899;-74
2024/01/09 07:59:07;;;;;;;21.33;9.32;;;;;;;-6.27;100.00;103438.53;5095595;27;20039;-74
2024/01/09 08:01:34;;;;;;;19.50;9.00;;;;;;;-6.20;100.00;103439.69;5091868;27;20042;-74
2024/01/09 08:04:01;;;;;;;14.82;8.45;;;;;;;-6.23;100.00;103431.75;5086442;27;20067;-74
2024/01/09 08:06:26;;;;;;;19.35;8.75;;;;;;;-6.25;100.00;103433.41;5097581;27;20864;-74
2024/01/09 08:08:51;;;;;;;21.83;9.77;;;;;;;-6.18;100.00;103442.34;5099126;27;20138;-73
2024/01/09 08:11:17;;;;;;;19.35;8.50;;;;;;;-6.15;100.00;103435.59;5090718;27;20572;-75
2024/01/09 08:13:43;;;;;;;19.98;9.10;;;;;;;-6.19;100.00;103432.78;5097279;27;20478;-73
2024/01/09 08:16:08;;;;;;;15.10;8.30;;;;;;;-6.09;100.00;103427.22;5088938;27;20039;-75
2024/01/09 08:18:34;;;;;;;17.30;9.00;;;;;;;-6.11;100.00;103444.44;5097351;27;20853;-74
2024/01/09 08:21:00;;;;;;;19.92;8.77;;;;;;;-6.12;100.00;103438.34;5068921;27;20031;-74
2024/01/09 08:23:26;;;;;;;19.17;8.88;;;;;;;-6.07;100.00;103444.66;5099792;27;20126;-74
2024/01/09 08:25:51;;;;;;;21.63;10.25;;;;;;;-6.06;100.00;103459.41;5095432;27;20051;-73
2024/01/09 08:28:17;;;;;;;15.10;8.23;;;;;;;-6.05;100.00;103449.91;5092638;27;20031;-74
2024/01/09 08:30:43;;;;;;;17.98;8.57;;;;;;;-6.00;100.00;103441.50;5092640;27;20881;-74
2024/01/09 08:33:08;;;;;;;16.05;8.27;;;;;;;-6.05;100.00;103445.59;5094954;27;20512;-73
2024/01/09 08:35:34;;;;;;;16.13;8.32;;;;;;;-5.97;100.00;103447.66;5077929;27;20839;-75
2024/01/09 08:37:59;;;;;;;18.33;8.70;;;;;;;-5.97;100.00;103452.84;5077239;27;20044;-74
2024/01/09 08:40:25;;;;;;;17.27;8.02;;;;;;;-5.96;100.00;103452.94;5097054;27;20061;-73
2024/01/09 08:42:50;;;;;;;16.92;8.75;;;;;;;-6.00;100.00;103449.31;5089197;27;20767;-74
2024/01/09 08:45:17;;;;;;;22.90;8.95;;;;;;;-5.85;100.00;103443.91;5091146;27;20056;-73
2024/01/09 08:47:43;;;;;;;18.52;9.38;;;;;;;-5.76;100.00;103454.72;5092218;27;20994;-73
2024/01/09 08:50:08;;;;;;;15.05;7.85;;;;;;;-5.71;100.00;103443.66;5101263;27;20038;-73
2024/01/09 08:52:36;;;;;;;21.77;8.40;;;;;;;-5.71;100.00;103443.66;5090024;27;20042;-73
2024/01/09 08:55:03;;;;;;;18.40;8.30;;;;;;;-5.64;100.00;103443.97;5093111;27;20088;-72
2024/01/09 08:57:29;;;;;;;15.15;7.55;;;;;;;-5.66;100.00;103442.16;5094348;27;20028;-73
2024/01/09 08:59:56;;;;;;;16.60;7.63;;;;;;;-5.73;100.00;103448.75;5093936;27;20341;-72
2024/01/09 09:02:22;;;;;;;15.32;8.32;;;;;;;-5.71;100.00;103462.72;5090718;27;20029;-72
2024/01/09 09:04:47;;;;;;;17.80;8.48;;;;;;;-5.60;100.00;103458.00;5077904;27;20055;-72
2024/01/09 09:07:14;;;;;;;16.83;8.00;;;;;;;-5.54;100.00;103461.75;5081158;27;20033;-75
2024/01/09 09:09:40;;;;;;;14.80;8.25;;;;;;;-5.43;100.00;103457.03;5090296;27;20028;-74
2024/01/09 09:12:06;;;;;;;16.95;7.88;;;;;;;-5.45;100.00;103468.22;5090102;27;20857;-74
2024/01/09 09:14:31;;;;;;;16.17;7.50;;;;;;;-5.35;100.00;103460.00;5093681;27;20679;-73
2024/01/09 09:16:57;;;;;;;15.60;7.68;;;;;;;-5.36;100.00;103458.22;5087331;27;20843;-75
2024/01/09 09:19:23;;;;;;;15.32;8.65;;;;;;;-5.39;100.00;103469.34;5076565;27;20528;-75
2024/01/09 09:21:52;;;;;;;13.07;7.03;;;;;;;-5.30;100.00;103468.88;5097213;27;20040;-74
2024/01/09 09:24:17;;;;;;;16.17;7.80;;;;;;;-5.35;100.00;103458.28;5095715;27;20568;-74
2024/01/09 09:26:43;;;;;;;13.77;7.18;;;;;;;-5.27;100.00;103469.94;5098393;27;20031;-74
2024/01/09 09:29:09;;;;;;;17.67;8.15;;;;;;;-5.22;100.00;103463.22;5094468;27;20816;-76
2024/01/09 09:31:35;;;;;;;15.52;7.90;;;;;;;-5.15;100.00;103469.56;5097881;27;20032;-74
2024/01/09 09:34:00;;;;;;;14.07;7.45;;;;;;;-5.06;100.00;103476.88;5081958;27;20035;-74
2024/01/09 09:36:26;;;;;;;14.73;7.30;;;;;;;-5.16;100.00;103480.78;5092404;27;20032;-75
2024/01/09 09:38:53;;;;;;;15.55;7.43;;;;;;;-5.00;100.00;103467.63;5096536;27;20361;-75
2024/01/09 09:41:22;;;;;;;14.13;7.18;;;;;;;-5.00;100.00;103465.03;5093415;27;20040;-73
2024/01/09 09:43:57;;;;;;;15.88;7.57;;;;;;;-4.80;100.00;103457.19;5099145;27;20130;-75
2024/01/09 09:46:26;;;;;;;13.80;7.13;;;;;;;-4.82;100.00;103469.22;5100302;27;20074;-74
2024/01/09 09:48:53;;;;;;;15.35;6.57;;;;;;;-4.82;100.00;103464.00;5094345;27;20058;-75
2024/01/09 09:51:24;;;;;;;15.57;7.40;;;;;;;-4.73;100.00;103459.19;5096118;27;20036;-73
2024/01/09 09:53:52;;;;;;;13.80;7.05;;;;;;;-4.71;98.64;103458.44;5102995;27;20038;-73
2024/01/09 09:56:18;;;;;;;14.63;7.40;;;;;;;-4.74;97.17;103468.72;5109090;27;20139;-73
2024/01/09 09:58:44;;;;;;;11.50;6.03;;;;;;;-4.59;95.54;103457.19;5100225;27;20661;-75
2024/01/09 10:01:12;;;;;;;13.65;6.32;;;;;;;-4.58;95.06;103453.72;5108868;27;20043;-74
2024/01/09 10:03:48;;;;;;;11.52;6.32;;;;;;;-4.52;94.77;103467.91;5105016;27;20046;-74
2024/01/09 10:06:17;;;;;;;14.60;5.88;;;;;;;-4.49;92.36;103462.81;5099577;27;20135;-75
2024/01/09 10:08:43;;;;;;;14.15;7.05;;;;;;;-4.51;91.78;103461.00;5094779;27;20123;-74
2024/01/09 10:11:09;;;;;;;12.60;6.35;;;;;;;-4.38;91.72;103451.94;5095780;27;20038;-74
2024/01/09 10:13:34;;;;;;;14.70;6.30;;;;;;;-4.37;90.23;103448.50;5084475;27;20039;-74
2024/01/09 10:16:01;;;;;;;13.75;6.65;;;;;;;-4.37;90.85;103454.59;5097794;27;20032;-75
2024/01/09 10:18:30;;;;;;;11.43;6.18;;;;;;;-4.36;89.24;103453.81;5085364;27;20029;-74
2024/01/09 10:21:00;;;;;;;11.27;5.93;;;;;;;-4.32;88.40;103455.66;5087358;27;20040;-74
2024/01/09 10:23:29;;;;;;;13.90;5.88;;;;;;;-4.12;88.78;103447.75;5082444;27;20145;-73
2024/01/09 10:25:55;;;;;;;13.73;6.57;;;;;;;-4.13;88.90;103438.19;5077418;28;20604;-74
2024/01/09 10:28:22;;;;;;;16.05;6.50;;;;;;;-4.22;87.75;103450.03;5084356;27;20036;-73
2024/01/09 10:30:51;;;;;;;10.48;5.38;;;;;;;-4.01;87.72;103444.75;5087956;27;20485;-73
2024/01/09 10:33:17;;;;;;;14.15;6.28;;;;;;;-3.92;88.13;103444.22;5099199;27;20023;-73
2024/01/09 10:35:43;;;;;;;12.20;5.80;;;;;;;-3.91;86.54;103433.88;5094728;27;20654;-74
2024/01/09 10:38:10;;;;;;;12.43;6.60;;;;;;;-3.88;86.08;103429.59;5094271;27;20504;-74
2024/01/09 10:40:36;;;;;;;16.60;6.43;;;;;;;-3.82;84.93;103424.59;5093822;27;20588;-73
2024/01/09 10:43:01;;;;;;;8.10;5.18;;;;;;;-3.85;84.17;103427.09;5089178;27;20062;-74
2024/01/09 10:45:27;;;;;;;11.00;6.00;;;;;;;-3.89;84.60;103420.00;5094180;27;20064;-75
2024/01/09 10:47:54;;;;;;;11.55;5.47;;;;;;;-3.73;84.39;103425.81;5096952;27;20032;-74
2024/01/09 10:50:20;;;;;;;11.90;5.35;;;;;;;-3.75;81.62;103422.28;5096620;27;20154;-74
2024/01/09 10:52:49;;;;;;;17.35;5.65;;;;;;;-3.62;81.64;103407.97;5099953;27;20032;-74
2024/01/09 10:55:17;;;;;;;9.70;5.75;;;;;;;-3.56;82.32;103410.81;5077773;27;20043;-74
2024/01/09 10:57:45;;;;;;;11.75;6.15;;;;;;;-3.53;81.18;103415.25;5097504;27;20127;-75
2024/01/09 11:00:11;;;;;;;14.13;6.03;;;;;;;-3.40;82.23;103423.56;5082235;27;20139;-74
2024/01/09 11:02:37;;;;;;;14.82;5.43;;;;;;;-3.50;80.49;103413.66;5101308;27;20489;-73
2024/01/09 11:05:07;;;;;;;15.57;5.97;;;;;;;-3.43;80.46;103404.31;5096102;27;20134;-73